Station: Bulman  

  Atmospheric Gas Attenuation - ITU Rec 676-11   ----------------- dB/100km -----------------
Date Time Temp RH % AH g/m3 Dew Point Wind Direction Speed kph Gust kph Barometer mB Rainfall Since 9am 24GHz 47GHz 76GHz 122GHz 134GHz 241GHz
08/05 12:00 27.6 54 14.37 17.7 19 32 1012.9 0 31.0 30.8 54.7 144.5 152.2 528.3
08/05 11:50 29.1 51 14.73 18.2 15 17 1013 0 31.6 30.9 55.1 145.6 154.0 534.7
08/05 11:40 28.7 52 14.7 17.9 17 22 1013.1 0 31.6 31.0 55.3 146.0 154.4 536.0
08/05 11:30 28.7 53 14.98 18.2 17 26 1013.2 0 32.1 31.4 56.4 149.0 158.1 548.9
08/05 11:20 28.5 52 14.54 17.7 17 20 1013.3 0 31.2 30.8 54.8 144.7 152.7 530.2
08/05 11:10 28.8 52 14.78 18 17 26 1013.4 0 31.7 31.1 55.6 146.7 155.3 539.1
08/05 11:00 28.5 54 15.09 18.3 17 26 1013.5 0 32.4 31.7 57.0 150.6 160.0 555.5
08/05 10:50 28.7 53 14.98 18.2 15 19 1013.7 0 32.1 31.4 56.5 149.1 158.1 549.1
08/05 10:40 27.4 52 13.68 16.7 17 22 1013.8 0 29.5 29.8 52.2 137.6 143.7 498.6
08/05 10:30 27 51 13.13 16 15 26 1013.9 0 28.4 29.1 50.3 132.6 137.4 476.4
08/05 10:20 26.4 49 12.2 15.1 17 22 1014 0 26.5 27.8 47.1 124.0 126.6 438.8
08/05 10:10 26.7 52 13.16 16 11 17 1014 0 28.5 29.2 50.6 133.4 138.3 479.6
08/05 10:00 26.1 50 12.24 14.9 15 26 1014.1 0 26.6 28.0 47.4 124.9 127.6 442.2
08/05 09:50 26.6 50 12.59 15.6 9 13 1014.1 0 27.3 28.4 48.4 127.7 131.2 454.8
08/05 09:40 25.2 52 12.11 14.9 13 15 1014.1 0 26.4 28.1 47.4 125.0 127.4 441.5
08/05 09:30 25.1 53 12.27 15.1 15 22 1014.2 0 26.7 28.3 48.1 126.8 129.7 449.2
08/05 09:20 24.3 55 12.17 14.7 15 19 1014.2 0 26.6 28.4 48.2 127.0 129.7 449.3
08/05 09:10 24.6 55 12.38 15.2 13 24 1014.2 0 27.0 28.7 48.9 128.7 131.9 457.0
08/05 09:00 23.7 57 12.19 14.7 13 22 1014.2 0 26.7 28.7 48.7 128.2 131.0 453.6
08/05 08:50 23.2 60 12.47 15 15 17 1014.1 0 27.3 29.3 50.1 132.0 135.5 469.3
08/05 08:40 22.7 61 12.32 14.8 13 17 1014.1 0 27.0 29.2 49.8 131.2 134.4 465.4
08/05 08:30 22.3 62 12.24 14.7 15 26 1014 0 26.8 29.2 49.7 131.0 134.0 464.0
08/05 08:20 22.1 64 12.49 15 13 17 1014 0 27.4 29.7 50.9 134.1 137.7 476.9
08/05 08:10 21.7 65 12.4 14.8 13 19 1014 0 27.2 29.7 50.8 133.8 137.2 475.1
08/05 08:00 21.4 66 12.37 14.8 11 17 1014 0 27.2 29.7 50.8 133.9 137.3 475.5
08/05 07:50 21 67 12.27 14.6 15 19 1013.9 0 27.0 29.7 50.7 133.5 136.7 473.2
08/05 07:40 20.8 69 12.49 14.9 9 13 1013.7 0 27.5 30.1 51.7 136.3 140.0 484.8
08/05 07:30 20.6 70 12.53 14.9 11 20 1013.7 0 27.6 30.2 52.0 137.1 140.9 487.9
08/05 07:20 20.3 71 12.49 14.9 11 17 1013.5 0 27.5 30.3 52.0 137.1 140.9 487.8
08/05 07:10 20.1 73 12.69 15.1 9 15 1013.3 0 28.0 30.7 53.0 139.7 144.0 498.7
08/05 07:00 20.1 73 12.69 15.1 11 20 1013 0 28.0 30.7 53.0 139.7 144.0 498.5
08/05 06:50 20.1 73 12.69 15.1 9 13 1013.1 0 28.0 30.7 53.0 139.7 144.0 498.6
08/05 06:40 20.1 74 12.86 15.3 7 9 1012.9 0 28.3 31.0 53.7 141.6 146.3 506.8
08/05 06:30 20 75 12.96 15.4 11 17 1012.7 0 28.5 31.2 54.2 142.9 147.9 512.2
08/05 06:20 20.1 75 13.04 15.5 15 17 1012.6 0 28.7 31.3 54.4 143.6 148.8 515.4
08/05 06:10 20 76 13.13 15.6 9 11 1012.6 0 28.9 31.4 54.9 144.8 150.3 520.5
08/05 06:00 20.4 74 13.09 15.6 11 17 1012.5 0 28.8 31.2 54.4 143.6 148.9 515.8
08/05 05:50 20.3 76 13.37 15.9 9 11 1012.5 0 29.4 31.7 55.7 147.0 153.0 530.3
08/05 05:40 20.1 80 13.91 16.5 7 9 1012.4 0 30.6 32.8 58.2 153.6 161.1 558.5
08/05 05:30 19.7 84 14.26 16.9 7 13 1012.2 0 31.3 33.5 60.1 158.5 167.1 579.1
08/05 05:20 18.8 90 14.49 17.1 9 11 1012.2 0 31.9 34.3 61.8 163.2 172.5 597.9
08/05 05:10 17.5 96 14.31 16.9 7 9 1012.3 0 31.6 34.5 62.0 163.8 172.8 598.8
08/05 05:00 17.3 95 13.99 16.5 2 7 1012.2 0 30.9 34.0 60.7 160.3 168.4 583.5
08/05 04:50 17.5 95 14.16 16.7 0 0 1012.2 0 31.3 34.2 61.3 161.9 170.5 590.8
08/05 04:40 17.7 94 14.18 16.7 0 4 1012.2 0 31.3 34.2 61.3 161.8 170.4 590.3
08/05 04:30 17.9 93 14.2 16.8 0 6 1012 0 31.3 34.1 61.2 161.6 170.2 589.7
08/05 04:20 18.3 92 14.38 17 6 6 1012.1 0 31.7 34.3 61.7 162.9 172.0 596.0
08/05 04:10 18.6 91 14.48 17.1 6 7 1012.1 0 31.9 34.4 61.9 163.5 172.8 598.9
08/05 04:00 19.1 87 14.26 16.9 2 7 1012.1 0 31.4 33.8 60.5 159.8 168.4 583.6
08/05 03:50 20 82 14.17 16.8 6 7 1012.2 0 31.1 33.3 59.4 156.9 165.1 572.3
08/05 03:40 19.6 85 14.35 17 6 6 1012.2 0 31.5 33.7 60.5 159.8 168.6 584.5
08/05 03:30 19.3 87 14.43 17.1 7 11 1012.2 0 31.7 34.0 61.1 161.4 170.5 590.9
08/05 03:20 18.3 95 14.85 17.5 7 9 1012.3 0 32.7 35.2 63.9 168.7 179.1 620.8
08/05 03:10 17.9 96 14.66 17.3 7 7 1012.4 0 32.3 35.0 63.3 167.3 177.2 614.1
08/05 03:00 17.9 96 14.66 17.3 0 2 1012.3 0 32.3 35.0 63.3 167.2 177.2 614.1
08/05 02:50 18 96 14.74 17.4 0 0 1012.5 0 32.5 35.1 63.6 168.0 178.2 617.6
08/05 02:40 18.1 96 14.83 17.5 0 0 1012.6 0 32.7 35.2 64.0 169.0 179.3 621.6
08/05 02:30 18.1 95 14.68 17.3 0 6 1012.7 0 32.4 35.0 63.3 167.1 177.1 613.7
08/05 02:20 18.4 95 14.94 17.6 0 0 1012.7 0 32.9 35.3 64.2 169.7 180.3 625.0
08/05 02:10 18.4 94 14.78 17.4 0 0 1012.7 0 32.6 35.0 63.5 167.7 177.9 616.5
08/05 02:00 18.6 93 14.8 17.4 4 7 1012.7 0 32.6 35.0 63.4 167.5 177.7 615.9
08/05 01:50 18.9 93 15.07 17.7 6 7 1012.9 0 33.1 35.4 64.4 170.2 181.1 627.8
08/05 01:40 19.1 92 15.08 17.8 4 6 1013 0 33.1 35.3 64.3 169.9 180.8 626.7
08/05 01:30 19.4 91 15.18 17.9 6 7 1013 0 33.3 35.4 64.5 170.4 181.5 629.5
08/05 01:20 19.4 90 15.01 17.7 6 7 1013.2 0 33.0 35.1 63.8 168.4 179.0 620.7
08/05 01:10 19.6 90 15.19 17.9 7 9 1013.3 0 33.3 35.3 64.4 170.1 181.3 628.5
08/05 01:00 19.4 91 15.18 17.9 7 9 1013.4 0 33.3 35.4 64.5 170.5 181.6 629.7
08/05 00:50 19.3 92 15.26 18 7 7 1013.5 0 33.5 35.6 65.0 171.7 183.1 634.8
08/05 00:40 19.3 93 15.42 18.1 6 7 1013.6 0 33.8 35.9 65.8 173.7 185.5 643.3
08/05 00:30 19.2 94 15.5 18.2 6 7 1013.8 0 34.0 36.1 66.2 175.0 187.0 648.5
08/05 00:20 19.1 94 15.41 18.1 7 7 1013.9 0 33.8 36.0 65.9 174.1 185.9 644.6
08/05 00:10 19.2 95 15.66 18.4 6 6 1013.9 0 34.4 36.4 67.0 177.0 189.5 657.1
08/05 00:00 19.1 95 15.57 18.3 6 7 1014.1 0 34.2 36.3 66.7 176.1 188.4 653.2
07/05 23:50 19.2 94 15.5 18.2 6 7 1014.2 0 34.0 36.1 66.3 175.0 187.1 648.7
07/05 23:40 19.3 94 15.59 18.3 6 7 1014.2 0 34.2 36.2 66.6 175.9 188.2 652.6
07/05 23:30 19.4 94 15.68 18.4 6 7 1014.3 0 34.4 36.4 66.9 176.8 189.3 656.6
07/05 23:20 19.5 93 15.61 18.3 7 9 1014.2 0 34.2 36.2 66.5 175.7 188.0 652.0
07/05 23:10 19.5 93 15.61 18.3 6 7 1014.3 0 34.2 36.2 66.5 175.7 188.0 652.0
07/05 23:00 19.6 92 15.53 18.3 0 7 1014.5 0 34.1 36.0 66.1 174.5 186.6 647.0
07/05 22:50 19.8 91 15.54 18.3 0 0 1014.5 0 34.1 35.9 65.9 174.2 186.2 645.8
07/05 22:40 20 89 15.38 18.1 0 0 1014.6 0 33.7 35.6 65.0 171.8 183.3 635.7
07/05 22:30 20.2 90 15.74 18.5 0 0 1014.6 0 34.5 36.1 66.5 175.7 188.3 653.0
07/05 22:20 20.4 87 15.39 18.2 0 0 1014.6 0 33.7 35.4 64.7 171.0 182.5 632.9
07/05 22:10 20.7 85 15.3 18.1 0 0 1014.6 0 33.5 35.1 64.1 169.2 180.4 625.8
07/05 22:00 21.1 84 15.48 18.3 0 4 1014.7 0 33.8 35.3 64.6 170.5 182.2 631.8
07/05 21:50 21.4 81 15.18 18 0 4 1014.7 0 33.2 34.6 63.0 166.3 177.0 613.9
07/05 21:40 21.8 79 15.16 18 6 7 1014.6 0 33.1 34.4 62.5 165.1 175.8 609.7
07/05 21:30 21.9 79 15.24 18.1 6 9 1014.6 0 33.2 34.5 62.8 165.9 176.7 612.9
07/05 21:20 22 78 15.14 18 2 6 1014.6 0 33.0 34.3 62.3 164.5 175.0 607.1
07/05 21:10 22.3 76 15.01 17.9 6 6 1014.6 0 32.7 33.9 61.5 162.3 172.4 598.1
07/05 21:00 22.6 74 14.86 17.7 7 9 1014.6 0 32.4 33.6 60.6 159.9 169.6 588.3
07/05 20:50 22.9 72 14.71 17.6 7 9 1014.5 0 32.0 33.2 59.7 157.6 166.8 578.6
07/05 20:40 23.2 71 14.76 17.6 6 7 1014.3 0 32.1 33.1 59.7 157.5 166.8 578.7
07/05 20:30 23.4 69 14.51 17.4 7 9 1014.3 0 31.6 32.6 58.4 154.2 162.9 564.9
07/05 20:20 23.5 69 14.59 17.5 7 9 1014.3 0 31.7 32.7 58.7 154.9 163.8 568.1
07/05 20:10 23.6 69 14.67 17.6 6 9 1014.1 0 31.9 32.8 58.9 155.6 164.7 571.2
07/05 20:00 23.8 68 14.63 17.5 7 11 1014 0 31.8 32.7 58.6 154.8 163.7 567.7
07/05 19:50 23.8 68 14.63 17.5 7 11 1013.8 0 31.8 32.7 58.6 154.7 163.6 567.7
07/05 19:40 24 69 15.01 18 7 9 1013.7 0 32.6 33.2 60.1 158.6 168.5 584.7
07/05 19:30 24.2 67 14.74 17.7 7 11 1013.5 0 32.0 32.7 58.8 155.1 164.3 569.9

Last Refresh: 08-May-2026 12:07:16

Bureau of Meteorology